createdAt,value
2023-02-26T00:00:39.167Z,67.64
2023-02-26T00:01:39.179Z,81.65
2023-02-26T00:02:39.152Z,71.30
2023-02-26T00:03:39.142Z,74.56
2023-02-26T00:04:39.140Z,80.69
2023-02-26T00:05:38.136Z,70.53
2023-02-26T00:06:39.120Z,59.46
2023-02-26T00:07:38.125Z,68.44
2023-02-26T00:08:39.137Z,68.89
2023-02-26T00:09:38.098Z,57.13
2023-02-26T00:10:39.133Z,53.77
2023-02-26T00:11:38.107Z,52.83
2023-02-26T00:12:39.088Z,44.11
2023-02-26T00:13:39.093Z,39.02
2023-02-26T00:14:38.069Z,37.14
2023-02-26T00:15:38.069Z,25.00
2023-02-26T00:16:39.226Z,28.05
2023-02-26T00:17:39.056Z,27.68
2023-02-26T00:18:39.049Z,31.31
2023-02-26T00:19:39.058Z,26.59
2023-02-26T00:20:38.044Z,25.00
2023-02-26T00:21:39.028Z,25.00
2023-02-26T00:22:39.039Z,29.16
2023-02-26T00:23:39.028Z,28.02
2023-02-26T00:24:39.048Z,26.68
2023-02-26T00:25:39.011Z,29.18
2023-02-26T00:26:39.011Z,27.24
2023-02-26T00:27:39.000Z,25.85
2023-02-26T00:28:38.983Z,29.18
2023-02-26T00:29:38.999Z,25.00
2023-02-26T00:30:39.003Z,27.04
2023-02-26T00:31:38.983Z,25.66
2023-02-26T00:32:39.009Z,26.65
2023-02-26T00:33:38.953Z,28.92
2023-02-26T00:34:38.980Z,26.45
2023-02-26T00:35:38.951Z,29.63
2023-02-26T00:36:38.941Z,25.00
2023-02-26T00:37:38.941Z,26.43
2023-02-26T00:38:38.969Z,25.00
2023-02-26T00:39:39.068Z,25.00
2023-02-26T00:40:39.110Z,29.76
2023-02-26T00:41:39.212Z,33.56
2023-02-26T00:42:39.220Z,31.06
2023-02-26T00:43:39.307Z,27.96
2023-02-26T00:44:39.373Z,28.65
2023-02-26T00:45:39.407Z,27.71
2023-02-26T00:46:39.444Z,29.50
2023-02-26T00:47:39.544Z,25.00
2023-02-26T00:48:39.569Z,29.44
2023-02-26T00:49:39.633Z,25.00
2023-02-26T00:50:38.662Z,31.69
2023-02-26T00:51:39.724Z,28.98
2023-02-26T00:52:39.768Z,30.68
2023-02-26T00:53:39.822Z,29.05
2023-02-26T00:54:38.845Z,28.31
2023-02-26T00:55:39.906Z,25.00
2023-02-26T00:56:39.995Z,26.97
2023-02-26T00:57:40.006Z,28.62
2023-02-26T00:58:39.056Z,27.23
2023-02-26T00:59:40.103Z,27.27
2023-02-26T01:00:39.148Z,31.95
2023-02-26T01:01:40.200Z,28.16
2023-02-26T01:02:40.229Z,29.06
2023-02-26T01:03:40.348Z,33.29
2023-02-26T01:04:39.318Z,27.22
2023-02-26T01:05:40.382Z,29.00
2023-02-26T01:06:40.407Z,29.26
2023-02-26T01:07:40.459Z,26.62
2023-02-26T01:08:39.496Z,25.72
2023-02-26T01:09:40.551Z,28.25
2023-02-26T01:10:40.601Z,28.43
2023-02-26T01:11:39.654Z,25.00
2023-02-26T01:12:40.746Z,29.93
2023-02-26T01:13:39.755Z,29.21
2023-02-26T01:14:39.804Z,27.86
2023-02-26T01:15:40.901Z,30.41
2023-02-26T01:16:39.917Z,27.08
2023-02-26T01:17:40.960Z,26.86
2023-02-26T01:18:41.017Z,25.48
2023-02-26T01:19:40.057Z,28.05
2023-02-26T01:20:41.122Z,27.83
2023-02-26T01:21:40.157Z,25.01
2023-02-26T01:22:40.234Z,26.19
2023-02-26T01:23:41.252Z,32.90
2023-02-26T01:24:41.311Z,33.32
2023-02-26T01:25:41.370Z,36.58
2023-02-26T01:26:41.391Z,31.18
2023-02-26T01:27:41.492Z,37.04
2023-02-26T01:28:41.504Z,32.99
2023-02-26T01:29:41.522Z,27.51
2023-02-26T01:30:40.588Z,29.17
2023-02-26T01:31:41.776Z,27.23
2023-02-26T01:32:41.764Z,31.43
2023-02-26T01:33:41.676Z,27.89
2023-02-26T01:34:40.729Z,32.15
2023-02-26T01:35:41.751Z,28.06
2023-02-26T01:36:41.800Z,28.38
2023-02-26T01:37:41.825Z,33.50
2023-02-26T01:38:41.888Z,28.94
2023-02-26T01:39:41.925Z,29.86
2023-02-26T01:40:41.961Z,26.15
2023-02-26T01:41:42.016Z,27.08
2023-02-26T01:42:41.046Z,29.45
2023-02-26T01:43:42.090Z,29.59
2023-02-26T01:44:41.163Z,27.99
2023-02-26T01:45:41.150Z,26.27
2023-02-26T01:46:42.241Z,28.57
2023-02-26T01:47:42.225Z,29.10
2023-02-26T01:48:42.281Z,25.19
2023-02-26T01:49:42.303Z,29.33
2023-02-26T01:50:42.332Z,32.52
2023-02-26T01:51:42.373Z,32.22
2023-02-26T01:52:42.416Z,27.41
2023-02-26T01:53:42.445Z,34.30
2023-02-26T01:54:42.462Z,30.23
2023-02-26T01:55:42.499Z,31.30
2023-02-26T01:56:42.535Z,29.31
2023-02-26T01:57:42.582Z,34.10
2023-02-26T01:58:42.596Z,38.58
2023-02-26T01:59:41.679Z,37.16
2023-02-26T02:00:42.694Z,31.91
2023-02-26T02:01:41.706Z,32.32
2023-02-26T02:02:42.806Z,31.41
2023-02-26T02:03:42.982Z,37.15
2023-02-26T02:04:41.814Z,31.44
2023-02-26T02:05:42.889Z,33.25
2023-02-26T02:06:42.885Z,29.06
2023-02-26T02:07:42.914Z,29.67
2023-02-26T02:08:42.945Z,26.39
2023-02-26T02:09:42.994Z,28.72
2023-02-26T02:10:42.012Z,26.79
2023-02-26T02:11:43.061Z,30.60
2023-02-26T02:12:43.070Z,26.43
2023-02-26T02:13:43.085Z,33.53
2023-02-26T02:14:43.113Z,31.74
2023-02-26T02:15:43.144Z,33.38
2023-02-26T02:16:43.218Z,42.89
2023-02-26T02:17:43.221Z,36.18
2023-02-26T02:18:43.262Z,30.81
2023-02-26T02:19:42.302Z,35.07
2023-02-26T02:20:43.327Z,30.87
2023-02-26T02:21:42.373Z,31.99
2023-02-26T02:22:43.386Z,32.89
2023-02-26T02:23:43.433Z,32.40
2023-02-26T02:24:42.544Z,33.31
2023-02-26T02:25:43.501Z,31.34
2023-02-26T02:26:42.541Z,29.80
2023-02-26T02:27:43.558Z,29.01
2023-02-26T02:28:43.595Z,67.58
2023-02-26T02:29:42.624Z,47.21
2023-02-26T02:30:42.668Z,37.56
2023-02-26T02:31:43.906Z,39.58
2023-02-26T02:32:43.823Z,36.90
2023-02-26T02:33:42.799Z,31.46
2023-02-26T02:34:43.837Z,32.12
2023-02-26T02:35:43.864Z,34.39
2023-02-26T02:36:43.919Z,38.32
2023-02-26T02:37:42.954Z,33.69
2023-02-26T02:38:43.993Z,36.55
2023-02-26T02:39:44.017Z,34.81
2023-02-26T02:40:44.074Z,45.13
2023-02-26T02:41:44.105Z,42.78
2023-02-26T02:42:44.154Z,43.44
2023-02-26T02:43:44.164Z,35.55
2023-02-26T02:44:44.214Z,34.18
2023-02-26T02:45:44.361Z,37.30
2023-02-26T02:46:43.338Z,36.96
2023-02-26T02:47:44.322Z,33.89
2023-02-26T02:48:43.372Z,33.43
2023-02-26T02:49:43.368Z,59.22
2023-02-26T02:50:43.480Z,43.65
2023-02-26T02:51:44.449Z,38.03
2023-02-26T02:52:44.491Z,33.85
2023-02-26T02:53:44.521Z,33.86
2023-02-26T02:54:44.550Z,31.64
2023-02-26T02:55:44.596Z,32.18
2023-02-26T02:56:44.607Z,34.35
2023-02-26T02:57:44.650Z,32.74
2023-02-26T02:58:43.674Z,33.71
2023-02-26T02:59:44.694Z,30.00
2023-02-26T03:00:44.747Z,36.79
2023-02-26T03:01:44.776Z,34.54
2023-02-26T03:02:44.890Z,35.08
2023-02-26T03:03:43.829Z,30.98
2023-02-26T03:04:43.885Z,34.06
2023-02-26T03:05:43.894Z,32.27
2023-02-26T03:06:43.945Z,32.58
2023-02-26T03:07:44.946Z,30.16
2023-02-26T03:08:44.988Z,33.65
2023-02-26T03:09:45.038Z,30.11
2023-02-26T03:10:45.072Z,40.21
2023-02-26T03:11:45.111Z,26.87
2023-02-26T03:12:44.122Z,27.98
2023-02-26T03:13:45.146Z,29.25
2023-02-26T03:14:45.194Z,38.33
2023-02-26T03:15:45.230Z,40.63
2023-02-26T03:16:45.355Z,31.80
2023-02-26T03:17:44.294Z,32.73
2023-02-26T03:18:45.330Z,30.60
2023-02-26T03:19:45.357Z,34.02
2023-02-26T03:20:45.480Z,33.86
2023-02-26T03:21:45.448Z,30.87
2023-02-26T03:22:45.460Z,30.04
2023-02-26T03:23:44.510Z,30.05
2023-02-26T03:24:45.528Z,29.13
2023-02-26T03:25:44.555Z,31.15
2023-02-26T03:26:45.616Z,27.62
2023-02-26T03:27:44.608Z,26.21
2023-02-26T03:28:44.652Z,27.81
2023-02-26T03:29:45.688Z,33.17
2023-02-26T03:30:45.753Z,30.43
2023-02-26T03:31:44.810Z,30.96
2023-02-26T03:32:45.783Z,28.31
2023-02-26T03:33:45.813Z,29.79
2023-02-26T03:34:45.847Z,28.64
2023-02-26T03:35:45.881Z,28.78
2023-02-26T03:36:45.942Z,31.20
2023-02-26T03:37:45.949Z,31.27
2023-02-26T03:38:45.987Z,32.82
2023-02-26T03:39:46.035Z,32.51
2023-02-26T03:40:46.063Z,32.51
2023-02-26T03:41:46.110Z,29.87
2023-02-26T03:42:46.127Z,29.47
2023-02-26T03:43:46.176Z,31.90
2023-02-26T03:44:45.204Z,33.18
2023-02-26T03:45:46.273Z,29.04
2023-02-26T03:46:46.265Z,27.57
2023-02-26T03:47:46.301Z,25.54
2023-02-26T03:48:46.403Z,27.00
2023-02-26T03:49:46.374Z,27.74
2023-02-26T03:50:46.404Z,30.01
2023-02-26T03:51:46.469Z,39.11
2023-02-26T03:52:46.488Z,34.39
2023-02-26T03:53:45.489Z,28.44
2023-02-26T03:54:46.510Z,29.36
2023-02-26T03:55:46.543Z,27.64
2023-02-26T03:56:46.594Z,29.43
2023-02-26T03:57:46.614Z,28.44
2023-02-26T03:58:45.633Z,29.11
2023-02-26T03:59:46.639Z,25.39
2023-02-26T04:00:45.669Z,29.60
2023-02-26T04:01:46.704Z,30.48
2023-02-26T04:02:46.737Z,33.10
2023-02-26T04:03:46.814Z,36.53
2023-02-26T04:04:46.788Z,31.27
2023-02-26T04:05:46.815Z,32.40
2023-02-26T04:06:45.832Z,31.04
2023-02-26T04:07:46.894Z,38.92
2023-02-26T04:08:46.930Z,38.02
2023-02-26T04:09:46.930Z,38.21
2023-02-26T04:10:46.952Z,32.68
2023-02-26T04:11:46.972Z,32.30
2023-02-26T04:12:45.992Z,43.03
2023-02-26T04:13:47.010Z,31.07
2023-02-26T04:14:47.052Z,30.98
2023-02-26T04:15:47.066Z,30.84
2023-02-26T04:16:46.144Z,29.01
2023-02-26T04:17:47.090Z,28.04
2023-02-26T04:18:47.110Z,27.29
2023-02-26T04:19:47.149Z,33.92
2023-02-26T04:20:46.160Z,30.31
2023-02-26T04:21:47.193Z,32.54
2023-02-26T04:22:47.218Z,31.08
2023-02-26T04:23:47.227Z,38.18
2023-02-26T04:24:47.261Z,34.39
2023-02-26T04:25:46.269Z,48.25
2023-02-26T04:26:46.304Z,39.49
2023-02-26T04:27:47.302Z,34.99
2023-02-26T04:28:47.337Z,33.26
2023-02-26T04:29:47.352Z,31.97
2023-02-26T04:30:47.458Z,39.11
2023-02-26T04:31:47.582Z,39.81
2023-02-26T04:32:47.424Z,50.70
2023-02-26T04:33:47.431Z,45.25
2023-02-26T04:34:47.445Z,39.09
2023-02-26T04:35:47.479Z,36.56
2023-02-26T04:36:46.492Z,34.75
2023-02-26T04:37:47.525Z,38.16
2023-02-26T04:38:47.545Z,36.60
2023-02-26T04:39:47.560Z,34.92
2023-02-26T04:40:46.615Z,38.60
2023-02-26T04:41:46.591Z,35.31
2023-02-26T04:42:47.714Z,34.81
2023-02-26T04:43:47.640Z,37.11
2023-02-26T04:44:47.653Z,31.75
2023-02-26T04:45:47.691Z,33.28
2023-02-26T04:46:47.691Z,27.78
2023-02-26T04:47:47.737Z,32.60
2023-02-26T04:48:47.728Z,26.50
2023-02-26T04:49:47.755Z,29.08
2023-02-26T04:50:46.802Z,30.30
2023-02-26T04:51:46.846Z,30.20
2023-02-26T04:52:47.823Z,31.45
2023-02-26T04:53:47.848Z,34.24
2023-02-26T04:54:47.876Z,30.95
2023-02-26T04:55:49.624Z,35.01
2023-02-26T04:56:47.894Z,38.94
2023-02-26T04:57:47.883Z,35.81
2023-02-26T04:58:47.867Z,33.74
2023-02-26T04:59:47.875Z,32.83
2023-02-26T05:00:46.853Z,31.06
2023-02-26T05:01:47.972Z,28.84
2023-02-26T05:02:46.854Z,29.65
2023-02-26T05:03:47.831Z,31.44
2023-02-26T05:04:47.898Z,28.44
2023-02-26T05:05:47.869Z,27.85
2023-02-26T05:06:47.847Z,28.17
2023-02-26T05:07:46.814Z,29.88
2023-02-26T05:08:47.813Z,30.92
2023-02-26T05:09:47.799Z,31.44
2023-02-26T05:10:46.786Z,32.96
2023-02-26T05:11:46.784Z,34.17
2023-02-26T05:12:47.804Z,33.53
2023-02-26T05:13:47.803Z,35.26
2023-02-26T05:14:47.754Z,31.53
2023-02-26T05:15:47.808Z,45.69
2023-02-26T05:16:47.713Z,36.63
2023-02-26T05:17:47.746Z,41.05
2023-02-26T05:18:47.716Z,36.84
2023-02-26T05:19:47.728Z,34.42
2023-02-26T05:20:47.700Z,33.38
2023-02-26T05:21:47.704Z,42.88
2023-02-26T05:22:47.710Z,41.80
2023-02-26T05:23:47.714Z,39.95
2023-02-26T05:24:47.712Z,41.11
2023-02-26T05:25:46.696Z,39.21
2023-02-26T05:26:47.680Z,43.90
2023-02-26T05:27:47.665Z,57.83
2023-02-26T05:28:47.674Z,50.95
2023-02-26T05:29:47.656Z,45.93
2023-02-26T05:30:46.667Z,40.97
2023-02-26T05:31:47.790Z,37.60
2023-02-26T05:32:46.638Z,40.16
2023-02-26T05:33:47.620Z,34.21
2023-02-26T05:34:47.600Z,41.87
2023-02-26T05:35:47.606Z,41.30
2023-02-26T05:36:46.594Z,39.18
2023-02-26T05:37:47.601Z,46.99
2023-02-26T05:38:47.580Z,53.91
2023-02-26T05:39:47.576Z,46.06
2023-02-26T05:40:47.552Z,50.20
2023-02-26T05:41:47.544Z,47.53
2023-02-26T05:42:46.550Z,51.66
2023-02-26T05:43:47.532Z,47.65
2023-02-26T05:44:47.569Z,44.24
2023-02-26T05:45:46.529Z,48.52
2023-02-26T05:46:47.578Z,54.20
2023-02-26T05:47:47.572Z,53.56
2023-02-26T05:48:47.594Z,48.78
2023-02-26T05:49:47.639Z,47.13
2023-02-26T05:50:46.664Z,43.83
2023-02-26T05:51:46.702Z,58.90
2023-02-26T05:52:47.739Z,47.31
2023-02-26T05:53:47.778Z,45.94
2023-02-26T05:54:47.803Z,54.47
2023-02-26T05:55:47.831Z,50.49
2023-02-26T05:56:47.860Z,48.32
2023-02-26T05:57:47.875Z,45.75
2023-02-26T05:58:47.903Z,51.07
2023-02-26T05:59:47.937Z,47.26
2023-02-26T06:00:47.968Z,44.35
2023-02-26T06:01:48.013Z,44.75
2023-02-26T06:02:47.997Z,44.69
2023-02-26T06:03:48.005Z,42.15
2023-02-26T06:04:47.025Z,44.07
2023-02-26T06:05:48.040Z,40.79
2023-02-26T06:06:48.087Z,45.81
2023-02-26T06:07:48.096Z,58.05
2023-02-26T06:08:48.127Z,73.27
2023-02-26T06:09:48.149Z,63.44
2023-02-26T06:10:48.152Z,53.30
2023-02-26T06:11:48.188Z,50.66
2023-02-26T06:12:48.200Z,51.40
2023-02-26T06:13:48.239Z,45.98
2023-02-26T06:14:48.250Z,51.89
2023-02-26T06:15:48.262Z,46.88
2023-02-26T06:16:48.409Z,48.81
2023-02-26T06:17:48.307Z,48.27
2023-02-26T06:18:48.329Z,45.89
2023-02-26T06:19:48.341Z,52.58
2023-02-26T06:20:48.375Z,48.15
2023-02-26T06:21:48.391Z,43.33
2023-02-26T06:22:48.400Z,44.34
2023-02-26T06:23:48.431Z,40.49
2023-02-26T06:24:48.442Z,41.66
2023-02-26T06:25:48.469Z,45.13
2023-02-26T06:26:48.494Z,36.81
2023-02-26T06:27:48.584Z,44.43
2023-02-26T06:28:48.542Z,38.57
2023-02-26T06:29:48.606Z,37.35
2023-02-26T06:30:48.732Z,41.44
2023-02-26T06:31:48.819Z,39.32
2023-02-26T06:32:48.750Z,39.50
2023-02-26T06:33:48.659Z,38.78
2023-02-26T06:34:48.682Z,37.76
2023-02-26T06:35:48.690Z,38.38
2023-02-26T06:36:48.719Z,44.09
2023-02-26T06:37:48.735Z,43.53
2023-02-26T06:38:48.772Z,40.27
2023-02-26T06:39:47.795Z,33.53
2023-02-26T06:40:48.810Z,35.73
2023-02-26T06:41:48.854Z,39.39
2023-02-26T06:42:48.892Z,38.07
2023-02-26T06:43:48.893Z,34.41
2023-02-26T06:44:48.908Z,33.57
2023-02-26T06:45:49.014Z,38.98
2023-02-26T06:46:48.953Z,36.84
2023-02-26T06:47:49.012Z,39.04
2023-02-26T06:48:48.073Z,38.41
2023-02-26T06:49:49.025Z,35.71
2023-02-26T06:50:49.083Z,35.43
2023-02-26T06:51:49.078Z,33.62
2023-02-26T06:52:49.118Z,30.57
2023-02-26T06:53:49.178Z,31.20
2023-02-26T06:54:49.148Z,30.24
2023-02-26T06:55:49.233Z,34.05
2023-02-26T06:56:49.196Z,30.21
2023-02-26T06:57:49.215Z,38.72
2023-02-26T06:58:49.264Z,38.24
2023-02-26T06:59:49.294Z,32.99
2023-02-26T07:00:49.353Z,33.03
2023-02-26T07:01:48.317Z,34.67
2023-02-26T07:02:49.339Z,36.30
2023-02-26T07:03:49.407Z,37.77
2023-02-26T07:04:48.411Z,35.25
2023-02-26T07:05:48.386Z,36.50
2023-02-26T07:06:49.412Z,37.02
2023-02-26T07:07:49.442Z,33.34
2023-02-26T07:08:48.498Z,30.26
2023-02-26T07:09:49.494Z,31.86
2023-02-26T07:10:49.497Z,29.51
2023-02-26T07:11:49.511Z,29.82
2023-02-26T07:12:49.570Z,29.76
2023-02-26T07:13:49.554Z,29.12
2023-02-26T07:14:49.569Z,26.25
2023-02-26T07:15:49.594Z,28.65
2023-02-26T07:16:49.644Z,29.95
2023-02-26T07:17:48.623Z,25.79
2023-02-26T07:18:48.644Z,25.00
2023-02-26T07:19:49.679Z,26.56
2023-02-26T07:20:49.708Z,31.07
2023-02-26T07:21:49.701Z,27.32
2023-02-26T07:22:48.711Z,32.90
2023-02-26T07:23:49.750Z,29.86
2023-02-26T07:24:49.766Z,34.52
2023-02-26T07:25:49.782Z,32.59
2023-02-26T07:26:48.792Z,32.26
2023-02-26T07:27:49.820Z,31.03
2023-02-26T07:28:48.829Z,29.54
2023-02-26T07:29:49.859Z,33.64
2023-02-26T07:30:49.983Z,32.44
2023-02-26T07:31:49.066Z,31.86
2023-02-26T07:32:48.882Z,31.66
2023-02-26T07:33:49.903Z,32.20
2023-02-26T07:34:49.919Z,34.16
2023-02-26T07:35:48.952Z,32.32
2023-02-26T07:36:49.980Z,33.86
2023-02-26T07:37:49.980Z,30.62
2023-02-26T07:38:49.982Z,29.04
2023-02-26T07:39:49.023Z,31.47
2023-02-26T07:40:50.026Z,37.42
2023-02-26T07:41:50.031Z,36.28
2023-02-26T07:42:50.055Z,32.93
2023-02-26T07:43:50.050Z,34.92
2023-02-26T07:44:50.087Z,32.48
2023-02-26T07:45:50.225Z,31.35
2023-02-26T07:46:49.103Z,37.47
2023-02-26T07:47:50.108Z,35.39
2023-02-26T07:48:50.130Z,36.31
2023-02-26T07:49:50.151Z,38.42
2023-02-26T07:50:50.162Z,30.63
2023-02-26T07:51:49.169Z,27.79
2023-02-26T07:52:50.207Z,31.67
2023-02-26T07:53:49.231Z,30.65
2023-02-26T07:54:50.243Z,31.76
2023-02-26T07:55:50.212Z,27.82
2023-02-26T07:56:50.226Z,33.78
2023-02-26T07:57:50.274Z,35.72
2023-02-26T07:58:50.265Z,33.27
2023-02-26T07:59:49.274Z,41.87
2023-02-26T08:00:50.284Z,35.35
2023-02-26T08:01:49.370Z,30.18
2023-02-26T08:02:50.293Z,31.67
2023-02-26T08:03:50.354Z,30.69
2023-02-26T08:04:50.322Z,29.96
2023-02-26T08:05:50.357Z,28.21
2023-02-26T08:06:50.398Z,29.46
2023-02-26T08:07:50.361Z,29.85
2023-02-26T08:08:50.388Z,28.68
2023-02-26T08:09:50.366Z,33.76
2023-02-26T08:10:50.389Z,34.33
2023-02-26T08:11:50.398Z,33.50
2023-02-26T08:12:50.416Z,37.52
2023-02-26T08:13:49.427Z,29.55
2023-02-26T08:14:50.432Z,61.05
2023-02-26T08:15:49.478Z,45.60
2023-02-26T08:16:50.435Z,36.61
2023-02-26T08:17:50.482Z,39.48
2023-02-26T08:18:50.512Z,32.34
2023-02-26T08:19:50.480Z,31.88
2023-02-26T08:20:50.488Z,36.90
2023-02-26T08:21:50.897Z,35.20
2023-02-26T08:22:50.490Z,31.18
2023-02-26T08:23:50.496Z,29.81
2023-02-26T08:24:49.534Z,29.01
2023-02-26T08:25:49.512Z,31.02
2023-02-26T08:26:50.528Z,31.96
2023-02-26T08:27:50.531Z,35.67
2023-02-26T08:28:50.558Z,36.71
2023-02-26T08:29:50.548Z,55.43
2023-02-26T08:30:50.657Z,49.78
2023-02-26T08:31:49.650Z,46.00
2023-02-26T08:32:50.559Z,44.09
2023-02-26T08:33:49.561Z,34.57
2023-02-26T08:34:49.576Z,33.55
2023-02-26T08:35:50.581Z,36.89
2023-02-26T08:36:50.583Z,46.78
2023-02-26T08:37:50.609Z,41.37
2023-02-26T08:38:49.607Z,34.64
2023-02-26T08:39:50.586Z,34.84
2023-02-26T08:40:50.629Z,32.70
2023-02-26T08:41:50.601Z,35.75
2023-02-26T08:42:50.615Z,38.48
2023-02-26T08:43:50.610Z,34.81
2023-02-26T08:44:50.619Z,30.79
2023-02-26T08:45:49.678Z,40.57
2023-02-26T08:46:50.683Z,31.57
2023-02-26T08:47:56.550Z,36.44
2023-02-26T08:48:50.630Z,36.54
2023-02-26T08:49:49.625Z,36.48
2023-02-26T08:50:49.615Z,32.89
2023-02-26T08:51:50.619Z,36.38
2023-02-26T08:52:50.620Z,34.22
2023-02-26T08:53:50.602Z,34.74
2023-02-26T08:54:50.597Z,36.88
2023-02-26T08:55:50.614Z,35.85
2023-02-26T08:56:50.626Z,35.88
2023-02-26T08:57:49.589Z,32.39
2023-02-26T08:58:50.581Z,31.69
2023-02-26T08:59:50.577Z,37.16
2023-02-26T09:00:50.565Z,37.61
2023-02-26T09:01:50.576Z,36.94
2023-02-26T09:02:50.646Z,37.85
2023-02-26T09:03:50.542Z,32.76
2023-02-26T09:04:50.531Z,31.03
2023-02-26T09:05:50.529Z,31.36
2023-02-26T09:06:50.515Z,31.18
2023-02-26T09:07:50.560Z,29.35
2023-02-26T09:08:49.513Z,28.24
2023-02-26T09:09:50.490Z,27.11
2023-02-26T09:10:49.496Z,26.79
2023-02-26T09:11:49.468Z,26.89
2023-02-26T09:12:50.489Z,30.04
2023-02-26T09:13:50.469Z,30.29
2023-02-26T09:14:50.450Z,32.17
2023-02-26T09:15:50.460Z,28.82
2023-02-26T09:16:51.321Z,28.81
2023-02-26T09:17:49.427Z,28.70
2023-02-26T09:18:50.420Z,25.97
2023-02-26T09:19:50.415Z,27.69
2023-02-26T09:20:50.435Z,26.41
2023-02-26T09:21:50.399Z,25.16
2023-02-26T09:22:50.428Z,30.59
2023-02-26T09:23:50.387Z,29.40
2023-02-26T09:24:50.434Z,31.20
2023-02-26T09:25:50.387Z,28.30
2023-02-26T09:26:50.396Z,28.26
2023-02-26T09:27:50.372Z,27.20
2023-02-26T09:28:49.384Z,30.31
2023-02-26T09:29:50.374Z,27.57
2023-02-26T09:30:50.374Z,31.02
2023-02-26T09:31:50.440Z,30.16
2023-02-26T09:32:50.389Z,29.15
2023-02-26T09:33:50.322Z,25.17
2023-02-26T09:34:50.317Z,26.41
2023-02-26T09:35:50.321Z,31.72
2023-02-26T09:36:50.310Z,27.56
2023-02-26T09:37:49.289Z,30.39
2023-02-26T09:38:50.298Z,32.57
2023-02-26T09:39:50.284Z,31.43
2023-02-26T09:40:50.263Z,25.76
2023-02-26T09:41:50.296Z,31.45
2023-02-26T09:42:49.298Z,30.88
2023-02-26T09:43:50.279Z,32.77
2023-02-26T09:44:50.301Z,32.10
2023-02-26T09:45:50.341Z,32.60
2023-02-26T09:46:50.320Z,31.25
2023-02-26T09:47:50.334Z,33.97
2023-02-26T09:48:50.341Z,31.35
2023-02-26T09:49:49.363Z,32.69
2023-02-26T09:50:49.376Z,33.43
2023-02-26T09:51:50.400Z,28.08
2023-02-26T09:52:49.428Z,31.64
2023-02-26T09:53:50.431Z,34.84
2023-02-26T09:54:50.427Z,33.50
2023-02-26T09:55:50.451Z,36.86
2023-02-26T09:56:50.521Z,31.08
2023-02-26T09:57:50.503Z,32.74
2023-02-26T09:58:50.575Z,38.56
2023-02-26T09:59:50.527Z,36.97
2023-02-26T10:00:50.600Z,33.02
2023-02-26T10:01:50.589Z,37.33
2023-02-26T10:02:49.566Z,52.03
2023-02-26T10:03:50.584Z,44.82
2023-02-26T10:04:49.553Z,41.61
2023-02-26T10:05:50.547Z,41.18
2023-02-26T10:06:50.551Z,36.47
2023-02-26T10:07:49.540Z,37.83
2023-02-26T10:08:49.539Z,34.14
2023-02-26T10:09:49.533Z,34.21
2023-02-26T10:10:50.534Z,34.36
2023-02-26T10:11:50.540Z,35.00
2023-02-26T10:12:50.549Z,36.08
2023-02-26T10:13:57.704Z,33.02
2023-02-26T10:14:50.548Z,33.37
2023-02-26T10:15:50.549Z,33.63
2023-02-26T10:16:50.653Z,35.84
2023-02-26T10:17:50.546Z,35.02
2023-02-26T10:18:50.522Z,36.09
2023-02-26T10:19:50.536Z,34.43
2023-02-26T10:20:51.395Z,41.45
2023-02-26T10:21:50.307Z,38.27
2023-02-26T10:22:50.511Z,38.28
2023-02-26T10:23:50.492Z,33.76
2023-02-26T10:24:50.485Z,45.21
2023-02-26T10:25:50.480Z,43.83
2023-02-26T10:26:50.477Z,38.89
2023-02-26T10:27:50.467Z,42.05
2023-02-26T10:28:50.444Z,49.36
2023-02-26T10:29:50.455Z,46.93
2023-02-26T10:30:49.550Z,43.66
2023-02-26T10:31:50.591Z,36.48
2023-02-26T10:32:50.624Z,37.27
2023-02-26T10:33:50.477Z,39.08
2023-02-26T10:34:50.502Z,39.83
2023-02-26T10:35:49.521Z,40.06
2023-02-26T10:36:49.528Z,37.61
2023-02-26T10:37:50.539Z,57.67
2023-02-26T10:38:50.543Z,47.28
2023-02-26T10:39:50.575Z,57.27
2023-02-26T10:40:50.577Z,55.63
2023-02-26T10:41:50.614Z,53.46
2023-02-26T10:42:50.586Z,48.50
2023-02-26T10:43:50.625Z,52.22
2023-02-26T10:44:50.599Z,51.19
2023-02-26T10:45:50.634Z,45.40
2023-02-26T10:46:50.669Z,51.19
2023-02-26T10:47:50.658Z,46.17
2023-02-26T10:48:49.672Z,50.86
2023-02-26T10:49:50.636Z,51.04
2023-02-26T10:50:50.645Z,51.23
2023-02-26T10:51:50.643Z,45.27
2023-02-26T10:52:50.669Z,62.43
2023-02-26T10:53:50.694Z,67.06
2023-02-26T10:54:50.661Z,55.81
2023-02-26T10:55:49.646Z,48.25
2023-02-26T10:56:50.669Z,45.79
2023-02-26T10:57:50.654Z,45.11
2023-02-26T10:58:50.671Z,48.77
2023-02-26T10:59:50.694Z,58.86
2023-02-26T11:00:50.668Z,47.59
2023-02-26T11:01:49.673Z,45.24
2023-02-26T11:02:50.693Z,44.12
2023-02-26T11:03:50.715Z,54.20
2023-02-26T11:04:59.204Z,52.92
2023-02-26T11:05:50.701Z,53.00
2023-02-26T11:06:50.685Z,53.79
2023-02-26T11:07:50.702Z,52.00
2023-02-26T11:08:49.685Z,46.53
2023-02-26T11:09:50.674Z,47.66
2023-02-26T11:10:49.678Z,44.26
2023-02-26T11:11:50.658Z,43.57
2023-02-26T11:12:50.667Z,42.53
2023-02-26T11:13:50.653Z,43.74
2023-02-26T11:14:50.635Z,44.74
2023-02-26T11:15:49.674Z,44.96
2023-02-26T11:16:50.626Z,44.05
2023-02-26T11:17:49.643Z,39.05
2023-02-26T11:18:50.616Z,46.19
2023-02-26T11:19:50.605Z,52.63
2023-02-26T11:20:50.619Z,64.22
2023-02-26T11:21:49.584Z,67.34
2023-02-26T11:22:49.589Z,64.20
2023-02-26T11:23:50.587Z,60.69
2023-02-26T11:24:50.596Z,57.41
2023-02-26T11:25:50.570Z,76.99
2023-02-26T11:26:50.553Z,70.51
2023-02-26T11:27:50.563Z,72.06
2023-02-26T11:28:50.544Z,66.06
2023-02-26T11:29:50.540Z,53.59
2023-02-26T11:30:49.701Z,59.96
2023-02-26T11:31:50.676Z,54.16
2023-02-26T11:32:49.533Z,63.96
2023-02-26T11:33:49.512Z,53.19
2023-02-26T11:34:49.506Z,55.77
2023-02-26T11:35:50.504Z,53.82
2023-02-26T11:36:49.504Z,62.16
2023-02-26T11:37:49.530Z,68.81
2023-02-26T11:38:49.476Z,58.53
2023-02-26T11:39:50.471Z,50.67
2023-02-26T11:40:50.470Z,49.45
2023-02-26T11:41:50.443Z,43.78
2023-02-26T11:42:50.491Z,55.08
2023-02-26T11:43:50.437Z,56.54
2023-02-26T11:44:50.426Z,54.34
2023-02-26T11:45:50.485Z,57.12
2023-02-26T11:46:49.413Z,54.30
2023-02-26T11:47:50.424Z,52.40
2023-02-26T11:48:50.411Z,60.63
2023-02-26T11:49:50.399Z,85.94
2023-02-26T11:50:50.375Z,66.44
2023-02-26T11:51:50.379Z,60.13
2023-02-26T11:52:50.400Z,51.73
2023-02-26T11:53:50.370Z,52.21
2023-02-26T11:54:50.387Z,49.45
2023-02-26T11:55:50.376Z,45.53
2023-02-26T11:56:50.352Z,50.96
2023-02-26T11:57:50.385Z,50.35
2023-02-26T11:58:50.366Z,52.54
2023-02-26T11:59:50.419Z,46.32
2023-02-26T12:00:49.356Z,54.16
2023-02-26T12:01:50.368Z,55.65
2023-02-26T12:02:50.481Z,49.07
2023-02-26T12:03:50.424Z,51.89
2023-02-26T12:04:50.370Z,49.80
2023-02-26T12:05:50.461Z,69.18
2023-02-26T12:06:50.370Z,59.25
2023-02-26T12:07:50.435Z,50.42
2023-02-26T12:08:50.388Z,47.38
2023-02-26T12:09:50.330Z,46.40
2023-02-26T12:10:50.332Z,44.06
2023-02-26T12:11:50.320Z,54.98
2023-02-26T12:12:50.337Z,49.99
2023-02-26T12:13:50.325Z,48.33
2023-02-26T12:14:49.364Z,51.41
2023-02-26T12:15:50.347Z,51.88
2023-02-26T12:16:50.337Z,49.62
2023-02-26T12:17:50.375Z,50.37
2023-02-26T12:18:50.365Z,45.08
2023-02-26T12:19:50.372Z,59.00
2023-02-26T12:20:50.364Z,52.88
2023-02-26T12:21:50.373Z,54.40
2023-02-26T12:22:50.393Z,44.85
2023-02-26T12:23:50.360Z,40.61
2023-02-26T12:24:50.382Z,43.98
2023-02-26T12:25:49.366Z,40.16
2023-02-26T12:26:50.356Z,55.36
2023-02-26T12:27:50.369Z,55.07
2023-02-26T12:28:50.329Z,54.70
2023-02-26T12:29:50.326Z,55.22
2023-02-26T12:30:50.362Z,54.12
2023-02-26T12:31:49.425Z,56.88
2023-02-26T12:32:50.374Z,53.26
2023-02-26T12:33:50.325Z,65.83
2023-02-26T12:34:50.311Z,56.30
2023-02-26T12:35:50.292Z,53.39
2023-02-26T12:36:50.330Z,56.68
2023-02-26T12:37:49.338Z,50.70
2023-02-26T12:38:50.337Z,50.56
2023-02-26T12:39:50.354Z,60.03
2023-02-26T12:40:50.355Z,59.46
2023-02-26T12:41:50.333Z,52.51
2023-02-26T12:42:50.335Z,49.84
2023-02-26T12:43:50.340Z,61.79
2023-02-26T12:44:50.317Z,50.49
2023-02-26T12:45:50.333Z,49.23
2023-02-26T12:46:50.425Z,51.12
2023-02-26T12:47:50.317Z,46.99
2023-02-26T12:48:51.450Z,46.09
2023-02-26T12:49:50.319Z,44.73
2023-02-26T12:50:49.307Z,41.95
2023-02-26T12:51:50.337Z,40.16
2023-02-26T12:52:50.292Z,41.20